Time;durP1;ratioP1;P1;durP2;ratioP2;P2;SDS_P1;SDS_P2;PMS_P1;PMS_P2;Temp;Humidity;BMP_temperature;BMP_pressure;BME280_temperature;BME280_humidity;BME280_pressure;Samples;Min_cycle;Max_cycle;Signal;HPM_P1;HPM_P2
2024/03/15 00:01:36;;;;;;;6.50;3.70;;;;;;;;;;4869562;29;20048;-74
2024/03/15 00:04:06;;;;;;;8.30;3.47;;;;;;;;;;4867045;29;20057;-73
2024/03/15 00:06:37;;;;;;;8.05;3.22;;;;;;;;;;4869998;29;20100;-73
2024/03/15 00:09:09;;;;;;;8.80;3.92;;;;;;;;;;4868846;29;20520;-73
2024/03/15 00:11:39;;;;;;;6.80;3.38;;;;;;;;;;4869771;29;20049;-74
2024/03/15 00:14:10;;;;;;;8.38;2.92;;;;;;;;;;4869536;29;20063;-73
2024/03/15 00:16:40;;;;;;;4.13;2.47;;;;;;;;;;4869215;29;20056;-74
2024/03/15 00:19:10;;;;;;;4.70;2.55;;;;;;;;;;4869735;29;20539;-75
2024/03/15 00:21:40;;;;;;;5.45;2.63;;;;;;;;;;4869228;29;20053;-72
2024/03/15 00:24:11;;;;;;;6.32;2.80;;;;;;;;;;4868967;29;20048;-73
2024/03/15 00:26:42;;;;;;;8.55;2.40;;;;;;;;;;4868878;29;20068;-73
2024/03/15 00:29:13;;;;;;;5.03;2.67;;;;;;;;;;4869277;29;20080;-72
2024/03/15 00:31:45;;;;;;;4.30;2.72;;;;;;;;;;4868661;29;20552;-73
2024/03/15 00:34:16;;;;;;;6.13;2.88;;;;;;;;;;4868019;29;20508;-74
2024/03/15 00:36:47;;;;;;;6.85;2.70;;;;;;;;;;4868190;29;20111;-74
2024/03/15 00:39:20;;;;;;;6.90;2.45;;;;;;;;;;4869010;29;20057;-74
2024/03/15 00:41:50;;;;;;;5.93;2.67;;;;;;;;;;4868207;29;20865;-73
2024/03/15 00:44:20;;;;;;;5.68;2.50;;;;;;;;;;4869820;29;20056;-74
2024/03/15 00:46:50;;;;;;;4.25;2.80;;;;;;;;;;4868783;29;20425;-74
2024/03/15 00:49:21;;;;;;;4.80;2.80;;;;;;;;;;4867845;29;20068;-73
2024/03/15 00:51:51;;;;;;;5.45;2.72;;;;;;;;;;4867936;29;20041;-73
2024/03/15 00:54:24;;;;;;;4.55;2.58;;;;;;;;;;4866654;29;20060;-73
2024/03/15 00:56:54;;;;;;;6.10;2.78;;;;;;;;;;4868879;29;20084;-73
2024/03/15 00:59:26;;;;;;;6.25;2.47;;;;;;;;;;4866909;29;20057;-73
2024/03/15 01:01:58;;;;;;;4.95;2.42;;;;;;;;;;4869108;29;20060;-73
2024/03/15 01:04:29;;;;;;;8.32;2.63;;;;;;;;;;4867931;29;20056;-73
2024/03/15 01:06:58;;;;;;;8.23;2.47;;;;;;;;;;4868598;29;20060;-76
2024/03/15 01:09:29;;;;;;;5.50;2.40;;;;;;;;;;4868353;29;20576;-74
2024/03/15 01:12:01;;;;;;;6.50;2.50;;;;;;;;;;4869778;29;20060;-73
2024/03/15 01:14:32;;;;;;;7.28;2.20;;;;;;;;;;4868471;29;20080;-74
2024/03/15 01:17:02;;;;;;;6.20;2.50;;;;;;;;;;4868447;29;20049;-73
2024/03/15 01:19:33;;;;;;;7.90;2.25;;;;;;;;;;4869062;29;20053;-73
2024/03/15 01:22:04;;;;;;;9.27;2.28;;;;;;;;;;4868631;29;20053;-73
2024/03/15 01:24:35;;;;;;;9.68;2.10;;;;;;;;;;4868980;29;20865;-73
2024/03/15 01:27:05;;;;;;;6.85;2.20;;;;;;;;;;4868391;29;20420;-73
2024/03/15 01:29:35;;;;;;;10.38;2.40;;;;;;;;;;4868769;29;20053;-73
2024/03/15 01:32:05;;;;;;;5.63;1.92;;;;;;;;;;4868994;29;20413;-73
2024/03/15 01:34:36;;;;;;;9.30;2.60;;;;;;;;;;4868717;29;20052;-73
2024/03/15 01:37:07;;;;;;;5.22;1.98;;;;;;;;;;4867607;29;20052;-73
2024/03/15 01:39:37;;;;;;;4.07;1.77;;;;;;;;;;4866602;29;20436;-73
2024/03/15 01:42:09;;;;;;;4.78;1.98;;;;;;;;;;4868502;29;20076;-73
2024/03/15 01:44:53;;;;;;;5.57;1.92;;;;;;;;;;4870315;29;20059;-73
2024/03/15 01:47:26;;;;;;;3.30;2.13;;;;;;;;;;4872568;29;20049;-74
2024/03/15 01:50:00;;;;;;;6.13;2.00;;;;;;;;;;4871964;29;20055;-73
2024/03/15 01:52:33;;;;;;;3.53;2.05;;;;;;;;;;4870948;29;20056;-73
2024/03/15 01:55:04;;;;;;;4.25;2.10;;;;;;;;;;4871721;29;20520;-73
2024/03/15 01:57:38;;;;;;;2.85;1.80;;;;;;;;;;4870139;29;20532;-73
2024/03/15 02:00:10;;;;;;;4.60;1.98;;;;;;;;;;4870033;29;20057;-73
2024/03/15 02:02:41;;;;;;;2.42;1.88;;;;;;;;;;4871458;29;21208;-73
2024/03/15 02:05:13;;;;;;;3.90;2.03;;;;;;;;;;4871945;29;20416;-72
2024/03/15 02:07:43;;;;;;;1.90;1.48;;;;;;;;;;4871586;29;20060;-73
2024/03/15 02:10:15;;;;;;;4.57;1.60;;;;;;;;;;4870356;29;20048;-73
2024/03/15 02:12:45;;;;;;;6.05;1.50;;;;;;;;;;4871907;29;20643;-73
2024/03/15 02:15:16;;;;;;;3.42;1.85;;;;;;;;;;4871551;29;20059;-73
2024/03/15 02:17:47;;;;;;;5.00;1.75;;;;;;;;;;4871457;29;20587;-73
2024/03/15 02:20:23;;;;;;;4.28;1.88;;;;;;;;;;4871626;29;20505;-73
2024/03/15 02:22:53;;;;;;;4.43;1.55;;;;;;;;;;4871842;29;20049;-73
2024/03/15 02:25:23;;;;;;;5.20;1.95;;;;;;;;;;4871112;29;20065;-73
2024/03/15 02:27:54;;;;;;;4.75;2.05;;;;;;;;;;4871021;29;20049;-73
2024/03/15 02:30:25;;;;;;;5.30;2.05;;;;;;;;;;4871466;29;20049;-73
2024/03/15 02:32:55;;;;;;;4.13;2.22;;;;;;;;;;4871287;29;20444;-73
2024/03/15 02:35:26;;;;;;;5.15;2.40;;;;;;;;;;4871029;29;20060;-74
2024/03/15 02:38:01;;;;;;;3.40;1.92;;;;;;;;;;4871024;29;20053;-73
2024/03/15 02:40:31;;;;;;;4.88;2.33;;;;;;;;;;4871468;29;20060;-74
2024/03/15 02:43:01;;;;;;;8.38;2.40;;;;;;;;;;4870965;29;20049;-74
2024/03/15 02:45:31;;;;;;;5.03;1.98;;;;;;;;;;4868539;29;20052;-73
2024/03/15 02:48:02;;;;;;;8.60;2.25;;;;;;;;;;4870803;29;20053;-73
2024/03/15 02:50:32;;;;;;;5.45;2.08;;;;;;;;;;4870773;29;20424;-73
2024/03/15 02:53:03;;;;;;;6.07;2.35;;;;;;;;;;4870381;29;20053;-72
2024/03/15 02:55:34;;;;;;;6.00;2.25;;;;;;;;;;4871767;29;20045;-73
2024/03/15 02:58:07;;;;;;;5.38;2.50;;;;;;;;;;4871624;29;20509;-73
2024/03/15 03:00:38;;;;;;;6.53;2.80;;;;;;;;;;4870763;29;20052;-73
2024/03/15 03:03:11;;;;;;;4.68;2.38;;;;;;;;;;4870774;29;20056;-73
2024/03/15 03:05:42;;;;;;;7.75;2.80;;;;;;;;;;4870600;29;20505;-73
2024/03/15 03:08:14;;;;;;;4.70;2.53;;;;;;;;;;4870678;29;20056;-73
2024/03/15 03:10:45;;;;;;;5.57;2.38;;;;;;;;;;4870322;29;20053;-73
2024/03/15 03:13:16;;;;;;;4.88;2.40;;;;;;;;;;4870616;29;20057;-73
2024/03/15 03:15:46;;;;;;;5.85;2.97;;;;;;;;;;4870430;29;20055;-73
2024/03/15 03:18:17;;;;;;;9.50;3.10;;;;;;;;;;4868129;29;20531;-72
2024/03/15 03:20:48;;;;;;;7.57;2.63;;;;;;;;;;4869864;29;20053;-73
2024/03/15 03:23:18;;;;;;;7.65;2.67;;;;;;;;;;4870585;29;20049;-73
2024/03/15 03:25:49;;;;;;;3.67;2.47;;;;;;;;;;4870100;29;20416;-73
2024/03/15 03:28:23;;;;;;;3.65;2.60;;;;;;;;;;4870180;29;20539;-73
2024/03/15 03:30:53;;;;;;;5.18;2.45;;;;;;;;;;4869783;29;20049;-73
2024/03/15 03:33:25;;;;;;;6.15;2.90;;;;;;;;;;4870395;29;20053;-73
2024/03/15 03:35:56;;;;;;;6.57;2.92;;;;;;;;;;4869966;29;20505;-73
2024/03/15 03:38:27;;;;;;;5.95;2.92;;;;;;;;;;4869694;29;20059;-73
2024/03/15 03:40:57;;;;;;;8.43;3.10;;;;;;;;;;4869867;29;20060;-73
2024/03/15 03:43:28;;;;;;;10.10;2.83;;;;;;;;;;4869952;29;20049;-73
2024/03/15 03:45:58;;;;;;;4.53;2.70;;;;;;;;;;4870904;29;20048;-74
2024/03/15 03:48:29;;;;;;;8.43;2.85;;;;;;;;;;4870843;29;20055;-74
2024/03/15 03:51:04;;;;;;;4.10;2.42;;;;;;;;;;4870219;29;20056;-72
2024/03/15 03:53:34;;;;;;;4.32;2.65;;;;;;;;;;4870232;29;20052;-73
2024/03/15 03:56:04;;;;;;;9.90;2.85;;;;;;;;;;4869550;29;21076;-73
2024/03/15 03:58:36;;;;;;;6.00;2.60;;;;;;;;;;4869140;29;20049;-72
2024/03/15 04:01:07;;;;;;;7.05;3.17;;;;;;;;;;4869337;29;20045;-72
2024/03/15 04:03:41;;;;;;;6.68;2.97;;;;;;;;;;4869753;29;20523;-73
2024/03/15 04:06:14;;;;;;;5.38;2.67;;;;;;;;;;4869407;29;20148;-73
2024/03/15 04:08:45;;;;;;;3.55;2.88;;;;;;;;;;4869188;29;20073;-72
2024/03/15 04:11:15;;;;;;;6.97;2.90;;;;;;;;;;4869419;29;20044;-72
2024/03/15 04:13:46;;;;;;;4.55;2.90;;;;;;;;;;4869306;29;20072;-73
2024/03/15 04:16:16;;;;;;;6.78;3.08;;;;;;;;;;4869301;29;20064;-73
2024/03/15 04:18:46;;;;;;;6.05;2.80;;;;;;;;;;4869843;29;20059;-72
2024/03/15 04:21:18;;;;;;;10.43;2.70;;;;;;;;;;4869149;29;20056;-72
2024/03/15 04:23:49;;;;;;;7.10;3.00;;;;;;;;;;4869611;29;20366;-73
2024/03/15 04:26:21;;;;;;;8.68;2.78;;;;;;;;;;4869570;29;20060;-73
2024/03/15 04:28:52;;;;;;;7.80;2.97;;;;;;;;;;4867966;29;20521;-72
2024/03/15 04:31:22;;;;;;;6.10;3.05;;;;;;;;;;4869525;29;20064;-73
2024/03/15 04:33:53;;;;;;;8.27;3.15;;;;;;;;;;4869437;29;20064;-73
2024/03/15 04:36:30;;;;;;;8.02;3.33;;;;;;;;;;4869250;29;20053;-72
2024/03/15 04:39:00;;;;;;;7.10;3.35;;;;;;;;;;4868855;29;20532;-73
2024/03/15 04:41:31;;;;;;;7.20;3.42;;;;;;;;;;4869005;29;20692;-73
2024/03/15 04:44:01;;;;;;;7.45;2.80;;;;;;;;;;4869552;29;20056;-72
2024/03/15 04:46:31;;;;;;;4.25;2.90;;;;;;;;;;4868530;29;20049;-72
2024/03/15 04:49:02;;;;;;;7.22;3.03;;;;;;;;;;4868642;29;20052;-72
2024/03/15 04:51:33;;;;;;;10.15;2.83;;;;;;;;;;4868364;29;20588;-73
2024/03/15 04:54:04;;;;;;;4.88;3.05;;;;;;;;;;4869175;29;20049;-73
2024/03/15 04:56:35;;;;;;;6.50;3.30;;;;;;;;;;4868799;29;20065;-72
2024/03/15 04:59:06;;;;;;;6.72;3.53;;;;;;;;;;4867052;29;20432;-73
2024/03/15 05:01:36;;;;;;;4.47;2.80;;;;;;;;;;4868676;29;20052;-73
2024/03/15 05:04:07;;;;;;;4.43;2.78;;;;;;;;;;4868277;29;20056;-72
2024/03/15 05:06:37;;;;;;;5.57;3.17;;;;;;;;;;4869049;29;20057;-73
2024/03/15 05:09:11;;;;;;;4.70;2.88;;;;;;;;;;4868884;29;20045;-73
2024/03/15 05:11:42;;;;;;;5.60;3.03;;;;;;;;;;4868733;29;20544;-73
2024/03/15 05:14:13;;;;;;;6.57;3.00;;;;;;;;;;4869376;29;20071;-73
2024/03/15 05:16:55;;;;;;;16.98;3.30;;;;;;;;;;4867254;29;20528;-73
2024/03/15 05:19:26;;;;;;;3.97;2.60;;;;;;;;;;4869883;29;20048;-73
2024/03/15 05:22:04;;;;;;;11.20;3.10;;;;;;;;;;4872589;29;20064;-72
2024/03/15 05:24:35;;;;;;;7.80;2.30;;;;;;;;;;4871991;29;20069;-72
2024/03/15 05:27:05;;;;;;;4.50;2.78;;;;;;;;;;4872243;29;20052;-73
2024/03/15 05:29:38;;;;;;;5.80;3.00;;;;;;;;;;4872429;29;20052;-73
2024/03/15 05:32:09;;;;;;;6.57;2.78;;;;;;;;;;4871963;29;20052;-72
2024/03/15 05:34:40;;;;;;;5.00;3.15;;;;;;;;;;4872750;29;20053;-73
2024/03/15 05:37:10;;;;;;;9.23;3.22;;;;;;;;;;4872141;29;20089;-73
2024/03/15 05:39:40;;;;;;;11.05;3.30;;;;;;;;;;4871947;29;20060;-72
2024/03/15 05:42:10;;;;;;;4.00;3.05;;;;;;;;;;4872647;29;20052;-72
2024/03/15 05:44:41;;;;;;;6.32;3.10;;;;;;;;;;4870384;29;20077;-73
2024/03/15 05:47:14;;;;;;;5.80;2.50;;;;;;;;;;4871735;29;20062;-72
2024/03/15 05:49:45;;;;;;;7.03;2.90;;;;;;;;;;4872047;29;20053;-72
2024/03/15 05:52:15;;;;;;;7.05;2.92;;;;;;;;;;4872281;29;20428;-73
2024/03/15 05:54:45;;;;;;;4.75;2.90;;;;;;;;;;4872304;29;20449;-72
2024/03/15 05:57:16;;;;;;;5.18;3.00;;;;;;;;;;4872031;29;20057;-73
2024/03/15 05:59:47;;;;;;;5.68;2.97;;;;;;;;;;4871856;29;20059;-72
2024/03/15 06:02:17;;;;;;;8.00;2.80;;;;;;;;;;4869892;29;20061;-73
2024/03/15 06:04:48;;;;;;;5.10;3.00;;;;;;;;;;4871704;29;20053;-72
2024/03/15 06:07:19;;;;;;;8.40;2.90;;;;;;;;;;4871343;29;20053;-72
2024/03/15 06:09:50;;;;;;;6.40;2.75;;;;;;;;;;4871819;29;20064;-73
2024/03/15 06:12:27;;;;;;;5.95;2.70;;;;;;;;;;4871437;29;20127;-73
2024/03/15 06:14:57;;;;;;;6.25;2.85;;;;;;;;;;4871336;29;20489;-73
2024/03/15 06:17:29;;;;;;;6.15;2.92;;;;;;;;;;4870829;29;20056;-72
2024/03/15 06:20:00;;;;;;;4.28;2.53;;;;;;;;;;4871353;29;20064;-72
2024/03/15 06:22:30;;;;;;;4.90;2.70;;;;;;;;;;4871406;29;20057;-73
2024/03/15 06:25:00;;;;;;;5.95;3.25;;;;;;;;;;4871182;29;20045;-72
2024/03/15 06:27:32;;;;;;;4.90;3.10;;;;;;;;;;4871614;29;20048;-73
2024/03/15 06:30:03;;;;;;;5.30;2.85;;;;;;;;;;4871033;29;20053;-72
2024/03/15 06:32:38;;;;;;;5.88;2.97;;;;;;;;;;4871878;29;20053;-73
2024/03/15 06:35:27;;;;;;;5.93;3.13;;;;;;;;;;4869070;29;20539;-73
2024/03/15 06:38:09;;;;;;;5.10;2.67;;;;;;;;;;4871113;29;20126;-73
2024/03/15 06:40:55;;;;;;;3.47;2.55;;;;;;;;;;4871203;29;20059;-74
2024/03/15 06:46:23;;;;;;;6.03;3.20;;;;;;;;;;4871572;29;20061;-73
2024/03/15 06:48:57;;;;;;;5.65;2.63;;;;;;;;;;4871422;29;20053;-72
2024/03/15 06:54:19;;;;;;;5.55;3.03;;;;;;;;;;4870662;29;20053;-73
2024/03/15 06:56:49;;;;;;;7.28;2.92;;;;;;;;;;4870412;29;20690;-73
2024/03/15 06:59:19;;;;;;;7.35;3.30;;;;;;;;;;4870536;29;20048;-73
2024/03/15 07:01:50;;;;;;;5.63;3.50;;;;;;;;;;4871090;29;20053;-73
2024/03/15 07:04:21;;;;;;;3.97;2.95;;;;;;;;;;4871705;29;20056;-73
2024/03/15 07:06:52;;;;;;;9.77;3.60;;;;;;;;;;4870536;29;20045;-73
2024/03/15 07:09:23;;;;;;;6.72;2.95;;;;;;;;;;4870375;29;20053;-72
2024/03/15 07:11:53;;;;;;;4.30;3.25;;;;;;;;;;4870052;29;20520;-73
2024/03/15 07:14:23;;;;;;;9.45;3.47;;;;;;;;;;4870365;29;20059;-73
2024/03/15 07:16:54;;;;;;;6.93;3.50;;;;;;;;;;4870933;29;20055;-73
2024/03/15 07:19:24;;;;;;;7.55;3.65;;;;;;;;;;4870320;29;20432;-72
2024/03/15 07:21:55;;;;;;;7.15;3.15;;;;;;;;;;4870384;29;20069;-73
2024/03/15 07:24:26;;;;;;;5.68;3.50;;;;;;;;;;4870318;29;20060;-72
2024/03/15 07:26:57;;;;;;;8.25;3.17;;;;;;;;;;4870332;29;20389;-73
2024/03/15 07:29:28;;;;;;;5.22;3.28;;;;;;;;;;4870216;29;20059;-74
2024/03/15 07:31:59;;;;;;;5.55;3.83;;;;;;;;;;4870389;29;20083;-72
2024/03/15 07:34:29;;;;;;;4.65;3.30;;;;;;;;;;4870457;29;20061;-73
2024/03/15 07:37:01;;;;;;;4.70;2.97;;;;;;;;;;4870549;29;20065;-72
2024/03/15 07:39:32;;;;;;;6.47;3.28;;;;;;;;;;4868509;29;20554;-72
2024/03/15 07:42:02;;;;;;;7.78;3.50;;;;;;;;;;4869061;29;20052;-72
2024/03/15 07:44:32;;;;;;;12.55;3.58;;;;;;;;;;4869635;29;20060;-72
2024/03/15 07:47:02;;;;;;;5.63;2.97;;;;;;;;;;4869097;29;20057;-72
2024/03/15 07:49:33;;;;;;;4.55;3.22;;;;;;;;;;4868800;29;20508;-73
2024/03/15 07:52:04;;;;;;;8.10;3.58;;;;;;;;;;4870178;29;20417;-73
2024/03/15 07:54:34;;;;;;;8.00;3.30;;;;;;;;;;4870078;29;20056;-73
2024/03/15 07:57:04;;;;;;;6.75;3.20;;;;;;;;;;4870471;29;20057;-73
2024/03/15 07:59:35;;;;;;;6.65;3.65;;;;;;;;;;4868203;29;20067;-72
2024/03/15 08:02:05;;;;;;;6.85;3.20;;;;;;;;;;4868462;29;20056;-72
2024/03/15 08:04:35;;;;;;;7.13;3.58;;;;;;;;;;4869080;29;20056;-74
2024/03/15 08:07:07;;;;;;;6.03;3.17;;;;;;;;;;4869765;29;20099;-72
2024/03/15 08:09:38;;;;;;;6.65;3.40;;;;;;;;;;4869524;29;20060;-73
2024/03/15 08:12:11;;;;;;;6.32;3.10;;;;;;;;;;4869426;29;20061;-73
2024/03/15 08:14:42;;;;;;;7.55;3.30;;;;;;;;;;4868184;29;20056;-72
2024/03/15 08:17:14;;;;;;;4.35;3.10;;;;;;;;;;4867878;29;20071;-73
2024/03/15 08:19:46;;;;;;;4.95;3.90;;;;;;;;;;4868687;29;20053;-72
2024/03/15 08:22:16;;;;;;;6.20;3.63;;;;;;;;;;4869553;29;20065;-72
2024/03/15 08:24:47;;;;;;;9.88;4.10;;;;;;;;;;4869668;29;20795;-73
2024/03/15 08:27:18;;;;;;;5.85;3.40;;;;;;;;;;4869468;29;20064;-73
2024/03/15 08:29:48;;;;;;;6.93;3.53;;;;;;;;;;4869710;29;20056;-74
2024/03/15 08:32:19;;;;;;;4.70;3.30;;;;;;;;;;4868700;29;20654;-73
2024/03/15 08:34:50;;;;;;;9.07;3.58;;;;;;;;;;4869250;29;20057;-73
2024/03/15 08:37:22;;;;;;;5.18;3.60;;;;;;;;;;4869364;29;20048;-73
2024/03/15 08:39:54;;;;;;;6.28;3.45;;;;;;;;;;4869581;29;20049;-73
2024/03/15 08:42:25;;;;;;;6.28;3.38;;;;;;;;;;4868092;29;20408;-72
2024/03/15 08:44:56;;;;;;;9.18;3.17;;;;;;;;;;4869143;29;20045;-73
2024/03/15 08:47:27;;;;;;;4.78;3.00;;;;;;;;;;4869179;29;20063;-73
2024/03/15 08:50:11;;;;;;;7.40;3.22;;;;;;;;;;4869026;29;20052;-73
2024/03/15 08:52:42;;;;;;;6.13;3.30;;;;;;;;;;4868885;29;20048;-73
2024/03/15 08:55:13;;;;;;;4.53;3.13;;;;;;;;;;4866602;29;20057;-72
2024/03/15 08:57:46;;;;;;;11.00;3.70;;;;;;;;;;4868827;29;20533;-73
2024/03/15 09:00:17;;;;;;;6.40;3.70;;;;;;;;;;4866942;29;20048;-72
2024/03/15 09:02:49;;;;;;;7.40;3.40;;;;;;;;;;4867222;29;20060;-73
2024/03/15 09:05:20;;;;;;;6.13;3.47;;;;;;;;;;4868433;29;20052;-73
2024/03/15 09:07:50;;;;;;;7.90;4.05;;;;;;;;;;4868675;29;20064;-73
2024/03/15 09:10:21;;;;;;;9.32;3.45;;;;;;;;;;4868717;29;20076;-73
2024/03/15 09:12:52;;;;;;;5.65;3.35;;;;;;;;;;4869023;29;20057;-73
2024/03/15 09:15:34;;;;;;;9.48;3.75;;;;;;;;;;4869671;29;20049;-72
2024/03/15 09:18:06;;;;;;;5.90;3.72;;;;;;;;;;4867269;29;20068;-73
2024/03/15 09:20:44;;;;;;;9.48;4.00;;;;;;;;;;4868821;29;20068;-73
2024/03/15 09:23:15;;;;;;;6.93;3.90;;;;;;;;;;4868094;29;20065;-72
2024/03/15 09:25:45;;;;;;;9.25;4.43;;;;;;;;;;4868491;29;20057;-73
2024/03/15 09:28:15;;;;;;;6.70;3.47;;;;;;;;;;4867239;29;20053;-72
2024/03/15 09:30:49;;;;;;;8.32;3.47;;;;;;;;;;4868277;29;20052;-73
2024/03/15 09:33:36;;;;;;;5.72;3.45;;;;;;;;;;4868921;29;20056;-73
2024/03/15 09:36:10;;;;;;;10.93;3.78;;;;;;;;;;4868913;29;20053;-77
2024/03/15 09:38:41;;;;;;;7.25;4.00;;;;;;;;;;4868728;29;20065;-72
2024/03/15 09:41:11;;;;;;;5.65;3.40;;;;;;;;;;4868686;29;20528;-74
2024/03/15 09:43:49;;;;;;;7.13;3.95;;;;;;;;;;4868390;29;20052;-73
2024/03/15 09:46:24;;;;;;;7.97;3.70;;;;;;;;;;4868374;29;20052;-73
2024/03/15 09:48:58;;;;;;;17.77;4.78;;;;;;;;;;4868705;29;20437;-73
2024/03/15 09:51:31;;;;;;;12.90;4.28;;;;;;;;;;4868064;29;20052;-72
2024/03/15 09:54:02;;;;;;;7.53;4.63;;;;;;;;;;4868019;29;20119;-76
2024/03/15 09:56:34;;;;;;;9.25;4.13;;;;;;;;;;4867919;29;20057;-73
2024/03/15 09:59:18;;;;;;;9.02;3.90;;;;;;;;;;4867700;29;20053;-73
2024/03/15 10:01:49;;;;;;;12.60;3.97;;;;;;;;;;4868219;29;20063;-73
2024/03/15 10:04:21;;;;;;;15.65;4.35;;;;;;;;;;4868927;29;20049;-73
2024/03/15 10:06:51;;;;;;;11.68;4.50;;;;;;;;;;4871915;29;20524;-74
2024/03/15 10:09:23;;;;;;;7.28;3.58;;;;;;;;;;4871638;29;20064;-73
2024/03/15 10:11:54;;;;;;;18.60;4.47;;;;;;;;;;4871548;29;20520;-73
2024/03/15 10:14:26;;;;;;;9.05;3.47;;;;;;;;;;4871048;29;20052;-79
2024/03/15 10:16:57;;;;;;;12.85;4.43;;;;;;;;;;4871804;29;20060;-72
2024/03/15 10:19:28;;;;;;;11.48;4.10;;;;;;;;;;4871071;29;20053;-79
2024/03/15 10:22:00;;;;;;;8.10;3.55;;;;;;;;;;4871764;29;20127;-74
2024/03/15 10:24:32;;;;;;;13.10;3.90;;;;;;;;;;4869827;29;20555;-74
2024/03/15 10:27:05;;;;;;;9.90;3.92;;;;;;;;;;4871207;29;20068;-76
2024/03/15 10:29:35;;;;;;;6.45;3.63;;;;;;;;;;4871723;29;20511;-72
2024/03/15 10:32:10;;;;;;;14.50;4.57;;;;;;;;;;4871538;29;20536;-72
2024/03/15 10:34:43;;;;;;;8.52;3.83;;;;;;;;;;4871342;29;20057;-74
2024/03/15 10:37:16;;;;;;;10.18;3.67;;;;;;;;;;4871174;29;20357;-75
2024/03/15 10:39:46;;;;;;;14.68;4.10;;;;;;;;;;4869926;29;20056;-72
2024/03/15 10:42:17;;;;;;;9.43;3.78;;;;;;;;;;4870807;29;20492;-75
2024/03/15 10:44:48;;;;;;;14.77;4.35;;;;;;;;;;4871297;29;20053;-74
2024/03/15 10:47:18;;;;;;;13.45;3.88;;;;;;;;;;4870695;29;20064;-74
2024/03/15 10:49:50;;;;;;;9.40;3.75;;;;;;;;;;4871389;29;20535;-73
2024/03/15 10:52:22;;;;;;;12.35;3.72;;;;;;;;;;4871471;29;20064;-72
2024/03/15 10:54:53;;;;;;;8.95;3.53;;;;;;;;;;4871190;29;20516;-72
2024/03/15 10:57:24;;;;;;;18.75;6.10;;;;;;;;;;4871085;29;20079;-73
2024/03/15 10:59:55;;;;;;;10.55;4.50;;;;;;;;;;4870111;29;21349;-73
2024/03/15 11:02:26;;;;;;;8.45;3.03;;;;;;;;;;4870425;29;20053;-73
2024/03/15 11:04:57;;;;;;;6.20;3.47;;;;;;;;;;4870849;29;20052;-73
2024/03/15 11:07:28;;;;;;;8.23;3.20;;;;;;;;;;4869677;29;20060;-73
2024/03/15 11:09:58;;;;;;;8.95;3.50;;;;;;;;;;4870666;29;21250;-75
2024/03/15 11:12:36;;;;;;;9.00;3.30;;;;;;;;;;4870700;29;20049;-73
2024/03/15 11:15:17;;;;;;;11.40;3.28;;;;;;;;;;4870646;29;20053;-73
2024/03/15 11:18:04;;;;;;;10.75;3.38;;;;;;;;;;4869491;29;20056;-72
2024/03/15 11:20:52;;;;;;;7.25;3.22;;;;;;;;;;4870048;29;20057;-72
2024/03/15 11:23:25;;;;;;;10.68;4.55;;;;;;;;;;4869877;29;20061;-71
2024/03/15 11:26:01;;;;;;;10.95;5.10;;;;;;;;;;4870173;29;20080;-72
2024/03/15 11:28:39;;;;;;;7.50;3.60;;;;;;;;;;4870520;29;20404;-74
2024/03/15 11:31:25;;;;;;;7.18;3.80;;;;;;;;;;4870488;29;20544;-73
2024/03/15 11:33:58;;;;;;;6.00;3.50;;;;;;;;;;4870120;29;20049;-81
2024/03/15 11:36:30;;;;;;;7.18;3.75;;;;;;;;;;4867937;29;20406;-73
2024/03/15 11:39:01;;;;;;;10.25;3.33;;;;;;;;;;4869529;29;20045;-72
2024/03/15 11:41:32;;;;;;;6.18;3.03;;;;;;;;;;4869656;29;20512;-73
2024/03/15 11:44:05;;;;;;;10.93;3.85;;;;;;;;;;4870013;29;20506;-73
2024/03/15 11:46:35;;;;;;;11.38;3.90;;;;;;;;;;4870311;29;20061;-73
2024/03/15 11:49:11;;;;;;;9.35;3.42;;;;;;;;;;4869586;29;20045;-72
2024/03/15 11:51:43;;;;;;;8.80;3.30;;;;;;;;;;4869108;29;20057;-73
2024/03/15 11:54:18;;;;;;;11.13;3.88;;;;;;;;;;4869425;29;20808;-73
2024/03/15 11:56:57;;;;;;;17.48;4.13;;;;;;;;;;4868706;29;20064;-72
2024/03/15 11:59:29;;;;;;;7.43;3.58;;;;;;;;;;4868738;29;20061;-72
2024/03/15 12:02:02;;;;;;;9.10;3.75;;;;;;;;;;4869968;29;20910;-72
2024/03/15 12:04:33;;;;;;;12.55;4.28;;;;;;;;;;4870217;29;20053;-74
2024/03/15 12:07:07;;;;;;;12.60;4.25;;;;;;;;;;4869498;29;20064;-72
2024/03/15 12:09:42;;;;;;;6.75;3.58;;;;;;;;;;4869550;29;20064;-73
2024/03/15 12:12:12;;;;;;;10.00;3.05;;;;;;;;;;4869805;29;21205;-72
2024/03/15 12:14:43;;;;;;;7.53;3.50;;;;;;;;;;4869484;29;20555;-73
2024/03/15 12:17:17;;;;;;;13.52;3.53;;;;;;;;;;4869926;29;20060;-73
2024/03/15 12:19:49;;;;;;;10.40;3.60;;;;;;;;;;4868330;29;20834;-72
2024/03/15 12:22:19;;;;;;;12.60;3.50;;;;;;;;;;4868755;29;20514;-73
2024/03/15 12:24:49;;;;;;;9.23;3.42;;;;;;;;;;4868746;29;20049;-72
2024/03/15 12:27:23;;;;;;;8.55;2.85;;;;;;;;;;4869361;29;20413;-75
2024/03/15 12:29:54;;;;;;;6.43;2.80;;;;;;;;;;4868894;29;20412;-72
2024/03/15 12:32:33;;;;;;;7.43;3.08;;;;;;;;;;4868892;29;20057;-72
2024/03/15 12:35:04;;;;;;;10.05;3.17;;;;;;;;;;4868984;29;20064;-75
2024/03/15 12:37:34;;;;;;;7.43;2.97;;;;;;;;;;4869189;29;20049;-72
2024/03/15 12:40:19;;;;;;;8.25;3.25;;;;;;;;;;4868511;29;20060;-74
2024/03/15 12:42:50;;;;;;;5.97;2.95;;;;;;;;;;4869456;29;20053;-73
2024/03/15 12:45:20;;;;;;;8.60;3.83;;;;;;;;;;4869152;29;20056;-73
2024/03/15 12:47:50;;;;;;;9.02;3.08;;;;;;;;;;4869543;29;20057;-72
2024/03/15 12:50:23;;;;;;;15.52;3.92;;;;;;;;;;4869185;29;20060;-72
2024/03/15 12:52:54;;;;;;;13.85;4.00;;;;;;;;;;4868741;29;20061;-72
2024/03/15 12:55:24;;;;;;;11.45;3.85;;;;;;;;;;4868953;29;20052;-72
2024/03/15 12:57:55;;;;;;;12.98;5.07;;;;;;;;;;4868944;29;20523;-73
2024/03/15 13:00:28;;;;;;;13.90;5.95;;;;;;;;;;4868991;29;20052;-72
2024/03/15 13:03:00;;;;;;;10.40;6.18;;;;;;;;;;4868901;29;20445;-73
2024/03/15 13:05:31;;;;;;;17.73;6.40;;;;;;;;;;4869301;29;20064;-72
2024/03/15 13:08:06;;;;;;;11.88;5.88;;;;;;;;;;4867435;29;20071;-72
2024/03/15 13:10:36;;;;;;;14.15;5.75;;;;;;;;;;4868612;29;20693;-72
2024/03/15 13:13:12;;;;;;;11.63;5.10;;;;;;;;;;4866980;29;20060;-73
2024/03/15 13:15:47;;;;;;;11.27;6.10;;;;;;;;;;4868588;29;20041;-72
2024/03/15 13:18:18;;;;;;;17.85;6.45;;;;;;;;;;4866915;29;20056;-72
2024/03/15 13:20:48;;;;;;;14.95;5.95;;;;;;;;;;4868844;29;20045;-72
2024/03/15 13:23:23;;;;;;;7.57;5.35;;;;;;;;;;4868482;29;20060;-72
2024/03/15 13:25:54;;;;;;;9.60;4.85;;;;;;;;;;4868438;29;20045;-72
2024/03/15 13:28:25;;;;;;;13.27;4.70;;;;;;;;;;4867918;29;20069;-72
2024/03/15 13:30:55;;;;;;;15.45;5.80;;;;;;;;;;4868244;29;20444;-73
2024/03/15 13:33:25;;;;;;;10.65;4.97;;;;;;;;;;4868835;29;20068;-75
2024/03/15 13:35:56;;;;;;;9.38;5.00;;;;;;;;;;4869000;29;20060;-74
2024/03/15 13:38:27;;;;;;;17.50;6.72;;;;;;;;;;4868687;29;20053;-73
2024/03/15 13:40:57;;;;;;;9.07;5.38;;;;;;;;;;4869284;29;20060;-72
2024/03/15 13:43:32;;;;;;;9.30;5.18;;;;;;;;;;4870934;29;20806;-74
2024/03/15 13:46:05;;;;;;;12.07;4.93;;;;;;;;;;4871615;29;20053;-72
2024/03/15 13:48:36;;;;;;;11.27;4.68;;;;;;;;;;4872024;29;20477;-71
2024/03/15 13:51:12;;;;;;;8.85;4.40;;;;;;;;;;4871760;29;20057;-74
2024/03/15 13:53:46;;;;;;;19.13;4.30;;;;;;;;;;4872294;29;20064;-73
2024/03/15 13:56:18;;;;;;;11.23;3.80;;;;;;;;;;4871672;29;20416;-74
2024/03/15 13:58:48;;;;;;;6.38;3.55;;;;;;;;;;4872021;29;20045;-72
2024/03/15 14:01:21;;;;;;;15.68;4.47;;;;;;;;;;4872514;29;20057;-73
2024/03/15 14:03:52;;;;;;;6.90;3.38;;;;;;;;;;4871820;29;20588;-72
2024/03/15 14:06:23;;;;;;;6.00;2.45;;;;;;;;;;4871703;29;20057;-74
2024/03/15 14:08:53;;;;;;;9.82;3.05;;;;;;;;;;4871622;29;20536;-72
2024/03/15 14:11:24;;;;;;;5.40;3.10;;;;;;;;;;4872081;29;20057;-75
2024/03/15 14:13:54;;;;;;;6.97;2.63;;;;;;;;;;4871157;29;20732;-72
2024/03/15 14:16:26;;;;;;;11.07;3.03;;;;;;;;;;4871496;29;20060;-75
2024/03/15 14:19:06;;;;;;;5.47;2.90;;;;;;;;;;4871514;29;20060;-72
2024/03/15 14:21:37;;;;;;;6.07;2.90;;;;;;;;;;4871354;29;20064;-72
2024/03/15 14:24:07;;;;;;;8.13;3.03;;;;;;;;;;4871556;29;20530;-72
2024/03/15 14:26:39;;;;;;;6.20;2.97;;;;;;;;;;4871144;29;20057;-73
2024/03/15 14:29:09;;;;;;;9.32;3.80;;;;;;;;;;4872082;29;20436;-72
2024/03/15 14:31:42;;;;;;;8.38;3.70;;;;;;;;;;4872115;29;20504;-72
2024/03/15 14:34:13;;;;;;;16.15;3.20;;;;;;;;;;4871292;29;20057;-73
2024/03/15 14:36:43;;;;;;;16.38;3.10;;;;;;;;;;4870957;29;20511;-74
2024/03/15 14:39:13;;;;;;;6.72;2.97;;;;;;;;;;4871195;29;20392;-72
2024/03/15 14:41:44;;;;;;;7.82;2.85;;;;;;;;;;4870915;29;20057;-73
2024/03/15 14:44:14;;;;;;;10.23;3.38;;;;;;;;;;4871078;29;20056;-78
2024/03/15 14:46:46;;;;;;;8.15;2.95;;;;;;;;;;4870909;29;20053;-74
2024/03/15 14:49:17;;;;;;;6.32;2.83;;;;;;;;;;4870556;29;20049;-73
2024/03/15 14:51:48;;;;;;;8.65;3.30;;;;;;;;;;4870742;29;20192;-73
2024/03/15 14:54:19;;;;;;;6.35;3.08;;;;;;;;;;4870876;29;20049;-71
2024/03/15 14:56:49;;;;;;;13.80;3.63;;;;;;;;;;4870392;29;20068;-74
2024/03/15 14:59:19;;;;;;;9.45;4.03;;;;;;;;;;4870890;29;20059;-73
2024/03/15 15:01:50;;;;;;;13.02;4.15;;;;;;;;;;4870612;29;20060;-74
2024/03/15 15:04:20;;;;;;;13.73;4.95;;;;;;;;;;4870481;29;20068;-74
2024/03/15 15:06:58;;;;;;;9.77;4.68;;;;;;;;;;4870949;29;20072;-76
2024/03/15 15:09:29;;;;;;;11.40;4.78;;;;;;;;;;4854829;29;20529;-75
2024/03/15 15:11:58;;;;;;;12.43;4.82;;;;;;;;;;4870291;29;20060;-76
2024/03/15 15:14:30;;;;;;;12.48;4.68;;;;;;;;;;4870642;29;20512;-73